Time;durP1;ratioP1;P1;durP2;ratioP2;P2;SDS_P1;SDS_P2;PMS_P1;PMS_P2;Temp;Humidity;BMP_temperature;BMP_pressure;BME280_temperature;BME280_humidity;BME280_pressure;Samples;Min_cycle;Max_cycle;Signal;HPM_P1;HPM_P2
2022/04/05 00:02:08;;;;;;;39.67;14.07;;;;;;;;;;5009195;28;20133;-72
2022/04/05 00:04:34;;;;;;;41.40;14.95;;;;;;;;;;5009863;28;20046;-71
2022/04/05 00:06:59;;;;;;;59.10;16.00;;;;;;;;;;5007732;28;20096;-72
2022/04/05 00:09:24;;;;;;;46.80;16.00;;;;;;;;;;5005203;28;20038;-72
2022/04/05 00:11:50;;;;;;;42.92;15.35;;;;;;;;;;5009136;28;20100;-71
2022/04/05 00:14:15;;;;;;;43.05;14.82;;;;;;;;;;5008024;28;20076;-72
2022/04/05 00:16:40;;;;;;;46.40;15.63;;;;;;;;;;5008803;28;20065;-71
2022/04/05 00:19:06;;;;;;;42.35;14.38;;;;;;;;;;5007793;28;20756;-71
2022/04/05 00:21:31;;;;;;;48.88;15.00;;;;;;;;;;5008937;28;20449;-71
2022/04/05 00:23:56;;;;;;;44.92;15.15;;;;;;;;;;5007660;28;20038;-71
2022/04/05 00:26:22;;;;;;;46.00;14.65;;;;;;;;;;5008163;28;20025;-72
2022/04/05 00:28:48;;;;;;;50.50;15.30;;;;;;;;;;5008539;28;20526;-71
2022/04/05 00:31:13;;;;;;;44.72;15.05;;;;;;;;;;5008075;28;20042;-71
2022/04/05 00:33:39;;;;;;;49.03;17.30;;;;;;;;;;5007883;28;20050;-71
2022/04/05 00:36:05;;;;;;;58.85;17.67;;;;;;;;;;5008142;28;20030;-71
2022/04/05 00:38:30;;;;;;;54.20;15.95;;;;;;;;;;5006443;28;20018;-71
2022/04/05 00:40:55;;;;;;;50.10;16.17;;;;;;;;;;5007105;28;20033;-71
2022/04/05 00:43:20;;;;;;;47.70;16.17;;;;;;;;;;5014755;28;20578;-71
2022/04/05 00:45:46;;;;;;;44.67;15.50;;;;;;;;;;5005925;28;20048;-71
2022/04/05 00:48:17;;;;;;;54.92;16.17;;;;;;;;;;5006512;28;20734;-72
2022/04/05 00:50:42;;;;;;;53.72;17.60;;;;;;;;;;5003369;28;20405;-71
2022/04/05 00:53:08;;;;;;;47.63;17.55;;;;;;;;;;5007843;28;20599;-71
2022/04/05 00:55:34;;;;;;;52.97;15.68;;;;;;;;;;5005329;28;20033;-71
2022/04/05 00:58:04;;;;;;;56.60;16.02;;;;;;;;;;5007914;28;20038;-71
2022/04/05 01:00:30;;;;;;;47.95;15.90;;;;;;;;;;5005511;28;20036;-71
2022/04/05 01:02:57;;;;;;;52.75;17.17;;;;;;;;;;5004788;28;20046;-71
2022/04/05 01:05:25;;;;;;;45.67;14.48;;;;;;;;;;5001329;28;20026;-71
2022/04/05 01:07:51;;;;;;;48.88;15.82;;;;;;;;;;5008235;28;20372;-71
2022/04/05 01:10:16;;;;;;;55.08;17.08;;;;;;;;;;5005493;28;20058;-71
2022/04/05 01:12:42;;;;;;;54.63;16.70;;;;;;;;;;5007685;28;20061;-71
2022/04/05 01:15:08;;;;;;;46.10;15.38;;;;;;;;;;5006762;28;20037;-71
2022/04/05 01:17:35;;;;;;;52.33;16.17;;;;;;;;;;5004153;28;20569;-71
2022/04/05 01:20:01;;;;;;;42.38;14.30;;;;;;;;;;4996237;28;20042;-72
2022/04/05 01:22:27;;;;;;;46.55;14.30;;;;;;;;;;5007911;28;20046;-71
2022/04/05 01:24:52;;;;;;;55.50;14.07;;;;;;;;;;5016726;28;20568;-71
2022/04/05 01:27:19;;;;;;;55.75;16.85;;;;;;;;;;5003472;28;20163;-71
2022/04/05 01:29:46;;;;;;;53.38;16.27;;;;;;;;;;5006167;28;20041;-71
2022/04/05 01:32:11;;;;;;;51.35;16.25;;;;;;;;;;5007363;28;20080;-72
2022/04/05 01:34:38;;;;;;;54.80;15.90;;;;;;;;;;4992144;28;20516;-71
2022/04/05 01:37:09;;;;;;;48.72;14.10;;;;;;;;;;5005049;28;20627;-71
2022/04/05 01:39:36;;;;;;;55.83;16.40;;;;;;;;;;5004885;28;20088;-72
2022/04/05 01:42:07;;;;;;;53.45;16.42;;;;;;;;;;5007036;28;20060;-71
2022/04/05 01:44:34;;;;;;;47.83;15.13;;;;;;;;;;5009051;28;20033;-72
2022/04/05 01:47:09;;;;;;;46.45;14.57;;;;;;;;;;5007136;28;20072;-72
2022/04/05 01:49:35;;;;;;;59.50;16.58;;;;;;;;;;5005548;28;20038;-72
2022/04/05 01:52:00;;;;;;;55.28;18.15;;;;;;;;;;5006464;28;20507;-72
2022/04/05 01:54:26;;;;;;;56.10;16.25;;;;;;;;;;5006039;28;20107;-71
2022/04/05 01:56:52;;;;;;;51.95;16.30;;;;;;;;;;5005893;28;20069;-71
2022/04/05 01:59:20;;;;;;;57.22;15.73;;;;;;;;;;5006443;28;20034;-71
2022/04/05 02:01:46;;;;;;;56.67;15.75;;;;;;;;;;5005611;28;20598;-71
2022/04/05 02:04:12;;;;;;;60.67;16.60;;;;;;;;;;5010266;28;20125;-71
2022/04/05 02:06:39;;;;;;;57.83;15.82;;;;;;;;;;5011370;28;20038;-71
2022/04/05 02:09:05;;;;;;;61.85;15.85;;;;;;;;;;5007351;28;20034;-72
2022/04/05 02:11:31;;;;;;;62.67;16.88;;;;;;;;;;5005680;28;20458;-71
2022/04/05 02:13:56;;;;;;;58.50;16.67;;;;;;;;;;5007625;28;20029;-71
2022/04/05 02:16:22;;;;;;;58.20;14.93;;;;;;;;;;5003171;28;20042;-72
2022/04/05 02:18:47;;;;;;;70.47;17.70;;;;;;;;;;5001072;28;20057;-71
2022/04/05 02:21:13;;;;;;;60.55;16.90;;;;;;;;;;5005921;28;20693;-72
2022/04/05 02:23:38;;;;;;;54.92;15.30;;;;;;;;;;5008998;28;20046;-71
2022/04/05 02:26:04;;;;;;;58.67;17.25;;;;;;;;;;4991119;28;20717;-72
2022/04/05 02:28:29;;;;;;;67.80;17.48;;;;;;;;;;4999136;28;20041;-72
2022/04/05 02:30:55;;;;;;;53.92;15.13;;;;;;;;;;5007174;28;20038;-71
2022/04/05 02:33:20;;;;;;;67.05;17.65;;;;;;;;;;5006544;28;20515;-71
2022/04/05 02:35:46;;;;;;;71.75;16.63;;;;;;;;;;5005841;28;20036;-71
2022/04/05 02:38:11;;;;;;;52.50;16.35;;;;;;;;;;5004942;28;20026;-72
2022/04/05 02:40:37;;;;;;;52.70;15.48;;;;;;;;;;5005297;28;20829;-72
2022/04/05 02:43:03;;;;;;;61.80;17.45;;;;;;;;;;5012705;28;20372;-72
2022/04/05 02:45:29;;;;;;;63.65;16.85;;;;;;;;;;5010773;28;20050;-71
2022/04/05 02:47:55;;;;;;;54.65;15.30;;;;;;;;;;5005909;28;20030;-72
2022/04/05 02:50:20;;;;;;;51.40;16.20;;;;;;;;;;5006916;28;20071;-72
2022/04/05 02:52:46;;;;;;;66.68;18.35;;;;;;;;;;5005878;28;20026;-71
2022/04/05 02:55:12;;;;;;;60.30;16.00;;;;;;;;;;5000347;28;20041;-72
2022/04/05 02:57:42;;;;;;;55.85;15.40;;;;;;;;;;5005073;28;20045;-72
2022/04/05 03:00:08;;;;;;;76.75;16.70;;;;;;;;;;4995713;28;20037;-71
2022/04/05 03:02:37;;;;;;;57.72;15.90;;;;;;;;;;5005190;28;20050;-71
2022/04/05 03:05:05;;;;;;;51.92;16.77;;;;;;;;;;5001350;28;20778;-72
2022/04/05 03:07:30;;;;;;;59.22;17.40;;;;;;;;;;5006053;28;20041;-71
2022/04/05 03:09:55;;;;;;;75.82;18.35;;;;;;;;;;5010337;28;20034;-72
2022/04/05 03:12:21;;;;;;;63.20;17.38;;;;;;;;;;5008659;28;20034;-72
2022/04/05 03:14:47;;;;;;;71.68;17.15;;;;;;;;;;5010407;28;20038;-72
2022/04/05 03:17:12;;;;;;;69.43;18.27;;;;;;;;;;5009698;28;20041;-72
2022/04/05 03:19:38;;;;;;;69.75;16.77;;;;;;;;;;5007822;28;20042;-72
2022/04/05 03:22:08;;;;;;;68.22;17.75;;;;;;;;;;5008227;28;20034;-72
2022/04/05 03:24:34;;;;;;;64.57;17.65;;;;;;;;;;5015918;28;20043;-71
2022/04/05 03:27:00;;;;;;;63.25;16.88;;;;;;;;;;5004223;28;20065;-72
2022/04/05 03:29:25;;;;;;;66.53;16.20;;;;;;;;;;5007670;28;20025;-72
2022/04/05 03:31:51;;;;;;;69.03;15.82;;;;;;;;;;5007403;28;20136;-71
2022/04/05 03:34:16;;;;;;;62.97;15.93;;;;;;;;;;5008431;28;20065;-71
2022/04/05 03:36:43;;;;;;;73.93;18.40;;;;;;;;;;5009652;28;20096;-71
2022/04/05 03:39:13;;;;;;;65.68;17.13;;;;;;;;;;5005984;28;20033;-71
2022/04/05 03:41:39;;;;;;;69.00;18.75;;;;;;;;;;5008277;28;20509;-71
2022/04/05 03:44:05;;;;;;;74.70;17.92;;;;;;;;;;5007908;28;20381;-71
2022/04/05 03:46:30;;;;;;;81.65;20.55;;;;;;;;;;5003641;28;20565;-72
2022/04/05 03:48:55;;;;;;;75.80;17.75;;;;;;;;;;5006893;28;20038;-71
2022/04/05 03:51:21;;;;;;;74.28;17.75;;;;;;;;;;5009060;28;20084;-71
2022/04/05 03:53:46;;;;;;;64.88;18.02;;;;;;;;;;5006704;28;20129;-71
2022/04/05 03:56:11;;;;;;;83.25;17.90;;;;;;;;;;5009742;28;20049;-71
2022/04/05 03:58:37;;;;;;;53.65;13.88;;;;;;;;;;5007467;28;20176;-71
2022/04/05 04:01:02;;;;;;;73.03;16.77;;;;;;;;;;5007964;28;20534;-72
2022/04/05 04:03:28;;;;;;;72.18;17.13;;;;;;;;;;5008474;28;20542;-71
2022/04/05 04:05:53;;;;;;;74.20;16.75;;;;;;;;;;5022221;28;20042;-71
2022/04/05 04:08:19;;;;;;;70.38;18.88;;;;;;;;;;5008263;28;20099;-72
2022/04/05 04:10:47;;;;;;;63.30;15.55;;;;;;;;;;5005838;28;20132;-72
2022/04/05 04:13:12;;;;;;;57.15;14.85;;;;;;;;;;5008061;28;20038;-72
2022/04/05 04:15:38;;;;;;;71.82;17.13;;;;;;;;;;5003096;28;20400;-71
2022/04/05 04:18:03;;;;;;;69.65;16.65;;;;;;;;;;5007296;28;20459;-72
2022/04/05 04:20:28;;;;;;;74.10;16.25;;;;;;;;;;5007963;28;20030;-72
2022/04/05 04:22:54;;;;;;;77.03;16.13;;;;;;;;;;5011301;28;20112;-71
2022/04/05 04:25:19;;;;;;;65.30;16.52;;;;;;;;;;5007267;28;20057;-72
2022/04/05 04:27:44;;;;;;;62.03;15.93;;;;;;;;;;4997312;28;20072;-71
2022/04/05 04:30:10;;;;;;;68.85;17.40;;;;;;;;;;5004620;28;20037;-72
2022/04/05 04:32:36;;;;;;;76.32;17.42;;;;;;;;;;5008431;28;20037;-71
2022/04/05 04:35:01;;;;;;;65.03;16.60;;;;;;;;;;5007217;28;20022;-71
2022/04/05 04:37:26;;;;;;;55.30;14.27;;;;;;;;;;5000081;28;20034;-71
2022/04/05 04:39:52;;;;;;;76.22;17.73;;;;;;;;;;5005965;28;20038;-72
2022/04/05 04:42:17;;;;;;;64.93;18.08;;;;;;;;;;5007585;28;20057;-71
2022/04/05 04:44:43;;;;;;;69.28;17.75;;;;;;;;;;5008298;28;20038;-71
2022/04/05 04:47:08;;;;;;;78.70;19.77;;;;;;;;;;5008130;28;20048;-71
2022/04/05 04:49:34;;;;;;;68.97;16.67;;;;;;;;;;5007450;28;20061;-71
2022/04/05 04:51:59;;;;;;;67.75;17.67;;;;;;;;;;5006035;28;20092;-71
2022/04/05 04:54:24;;;;;;;74.05;18.35;;;;;;;;;;5007403;28;20034;-71
2022/04/05 04:56:50;;;;;;;65.45;15.88;;;;;;;;;;5008362;28;20128;-71
2022/04/05 04:59:15;;;;;;;70.28;17.88;;;;;;;;;;5007665;28;20120;-71
2022/04/05 05:01:40;;;;;;;62.05;16.15;;;;;;;;;;5007568;28;20054;-71
2022/04/05 05:04:06;;;;;;;69.85;16.60;;;;;;;;;;5010399;28;20042;-71
2022/04/05 05:06:31;;;;;;;74.10;17.92;;;;;;;;;;5007013;28;20034;-71
2022/04/05 05:08:56;;;;;;;66.20;16.98;;;;;;;;;;5007224;28;20045;-71
2022/04/05 05:11:22;;;;;;;68.18;18.00;;;;;;;;;;5007457;28;20036;-71
2022/04/05 05:13:48;;;;;;;67.30;17.23;;;;;;;;;;5007750;28;20547;-71
2022/04/05 05:16:14;;;;;;;56.95;16.05;;;;;;;;;;5005420;28;20030;-71
2022/04/05 05:18:39;;;;;;;60.38;16.10;;;;;;;;;;5007376;28;20049;-71
2022/04/05 05:21:04;;;;;;;45.00;12.77;;;;;;;;;;5005342;28;20129;-71
2022/04/05 05:23:30;;;;;;;70.38;17.23;;;;;;;;;;5008006;28;20032;-71
2022/04/05 05:25:55;;;;;;;66.15;16.67;;;;;;;;;;5007636;28;20102;-71
2022/04/05 05:28:20;;;;;;;47.00;14.75;;;;;;;;;;5007262;28;20038;-71
2022/04/05 05:30:46;;;;;;;53.28;16.15;;;;;;;;;;5003991;28;20593;-71
2022/04/05 05:33:11;;;;;;;52.95;15.90;;;;;;;;;;5006899;28;20030;-71
2022/04/05 05:35:36;;;;;;;61.97;17.80;;;;;;;;;;5006712;28;20503;-71
2022/04/05 05:38:03;;;;;;;64.45;17.65;;;;;;;;;;5007315;28;20601;-71
2022/04/05 05:40:28;;;;;;;57.05;16.73;;;;;;;;;;4998977;28;20034;-71
2022/04/05 05:42:58;;;;;;;59.53;16.55;;;;;;;;;;5007877;28;20117;-71
2022/04/05 05:45:24;;;;;;;57.95;17.45;;;;;;;;;;4998196;28;20053;-72
2022/04/05 05:47:50;;;;;;;48.35;15.45;;;;;;;;;;5006980;28;20034;-72
2022/04/05 05:50:16;;;;;;;50.92;16.63;;;;;;;;;;5005951;28;20049;-71
2022/04/05 05:52:43;;;;;;;48.78;16.90;;;;;;;;;;5006875;28;20045;-71
2022/04/05 05:55:10;;;;;;;49.50;16.45;;;;;;;;;;5003143;28;20026;-71
2022/04/05 05:57:36;;;;;;;52.15;16.95;;;;;;;;;;5005561;28;20100;-72
2022/04/05 06:00:06;;;;;;;53.95;17.00;;;;;;;;;;5004499;28;20034;-71
2022/04/05 06:02:32;;;;;;;50.90;16.05;;;;;;;;;;5005206;28;20058;-71
2022/04/05 06:04:57;;;;;;;49.65;15.65;;;;;;;;;;5012656;28;20033;-72
2022/04/05 06:07:22;;;;;;;52.75;16.92;;;;;;;;;;5006877;28;20547;-72
2022/04/05 06:09:48;;;;;;;47.63;15.80;;;;;;;;;;5004752;28;20034;-72
2022/04/05 06:12:13;;;;;;;52.28;16.02;;;;;;;;;;5005710;28;20033;-71
2022/04/05 06:14:38;;;;;;;40.08;14.23;;;;;;;;;;5003786;28;20034;-71
2022/04/05 06:17:04;;;;;;;49.15;16.02;;;;;;;;;;5007055;28;20034;-71
2022/04/05 06:19:30;;;;;;;47.42;16.08;;;;;;;;;;5006413;28;20032;-72
2022/04/05 06:21:55;;;;;;;47.42;15.57;;;;;;;;;;5004795;28;20034;-72
2022/04/05 06:24:20;;;;;;;46.63;16.30;;;;;;;;;;5001749;28;20045;-72
2022/04/05 06:26:46;;;;;;;40.75;15.25;;;;;;;;;;5002805;28;20035;-71
2022/04/05 06:29:11;;;;;;;41.60;15.30;;;;;;;;;;5009851;28;20828;-71
2022/04/05 06:31:37;;;;;;;41.22;14.73;;;;;;;;;;5005855;28;20046;-72
2022/04/05 06:34:02;;;;;;;41.70;14.30;;;;;;;;;;5006814;28;20037;-72
2022/04/05 06:36:29;;;;;;;40.95;15.40;;;;;;;;;;5005171;28;20045;-72
2022/04/05 06:38:54;;;;;;;35.40;13.52;;;;;;;;;;5001982;28;20038;-72
2022/04/05 06:41:20;;;;;;;39.80;14.27;;;;;;;;;;5006409;28;20052;-72
2022/04/05 06:43:46;;;;;;;41.03;15.98;;;;;;;;;;5011969;28;20948;-71
2022/04/05 06:46:11;;;;;;;39.65;16.40;;;;;;;;;;5008312;28;20129;-71
2022/04/05 06:48:36;;;;;;;40.25;14.88;;;;;;;;;;5008813;28;20065;-72
2022/04/05 06:51:02;;;;;;;35.90;13.68;;;;;;;;;;5008255;28;20065;-71
2022/04/05 06:53:27;;;;;;;40.00;14.07;;;;;;;;;;5010540;28;20507;-72
2022/04/05 06:55:52;;;;;;;43.25;15.95;;;;;;;;;;5009583;28;20026;-71
2022/04/05 06:58:18;;;;;;;35.97;13.95;;;;;;;;;;5008880;28;20065;-71
2022/04/05 07:00:44;;;;;;;38.55;14.95;;;;;;;;;;5008779;28;20061;-71
2022/04/05 07:03:09;;;;;;;33.50;13.18;;;;;;;;;;5009144;28;20087;-71
2022/04/05 07:05:36;;;;;;;37.78;15.13;;;;;;;;;;5006234;28;20446;-72
2022/04/05 07:08:02;;;;;;;37.05;14.52;;;;;;;;;;4998784;28;20542;-71
2022/04/05 07:10:27;;;;;;;30.38;12.75;;;;;;;;;;5008226;28;20121;-71
2022/04/05 07:12:54;;;;;;;44.55;16.20;;;;;;;;;;5009483;28;20477;-71
2022/04/05 07:15:19;;;;;;;43.03;14.73;;;;;;;;;;5008240;28;20038;-71
2022/04/05 07:17:45;;;;;;;40.22;15.00;;;;;;;;;;5008959;28;20041;-71
2022/04/05 07:20:11;;;;;;;32.63;13.80;;;;;;;;;;5008815;28;20423;-72
2022/04/05 07:22:42;;;;;;;34.97;13.55;;;;;;;;;;5008306;28;20042;-71
2022/04/05 07:25:08;;;;;;;31.33;13.30;;;;;;;;;;4993988;28;20129;-71
2022/04/05 07:27:33;;;;;;;36.80;13.85;;;;;;;;;;4999386;28;20126;-72
2022/04/05 07:29:59;;;;;;;37.53;13.73;;;;;;;;;;5005384;28;20570;-71
2022/04/05 07:32:24;;;;;;;29.55;11.93;;;;;;;;;;5008735;28;20030;-72
2022/04/05 07:34:49;;;;;;;28.88;12.05;;;;;;;;;;5010122;28;20021;-71
2022/04/05 07:37:15;;;;;;;38.30;15.20;;;;;;;;;;5008357;28;20042;-71
2022/04/05 07:39:43;;;;;;;36.08;13.65;;;;;;;;;;5007526;28;20316;-71
2022/04/05 07:42:08;;;;;;;32.83;15.15;;;;;;;;;;5008335;28;20038;-71
2022/04/05 07:44:34;;;;;;;36.80;15.18;;;;;;;;;;5006589;28;20033;-72
2022/04/05 07:46:59;;;;;;;31.95;12.57;;;;;;;;;;5004699;28;20021;-72
2022/04/05 07:49:25;;;;;;;31.75;13.73;;;;;;;;;;5009588;28;20128;-72
2022/04/05 07:51:50;;;;;;;31.83;12.40;;;;;;;;;;5006760;28;20935;-71
2022/04/05 07:54:16;;;;;;;27.75;13.70;;;;;;;;;;5009086;28;20042;-72
2022/04/05 07:56:41;;;;;;;33.08;14.77;;;;;;;;;;5008007;28;20073;-71
2022/04/05 07:59:06;;;;;;;31.38;13.70;;;;;;;;;;5008487;28;20022;-71
2022/04/05 08:01:32;;;;;;;29.67;13.52;;;;;;;;;;5007832;28;20503;-72
2022/04/05 08:03:57;;;;;;;30.90;14.23;;;;;;;;;;5009227;28;20042;-72
2022/04/05 08:06:31;;;;;;;25.88;13.27;;;;;;;;;;5014976;28;20062;-72
2022/04/05 08:08:57;;;;;;;26.27;12.98;;;;;;;;;;5008628;28;20040;-71
2022/04/05 08:11:22;;;;;;;29.92;13.10;;;;;;;;;;5008793;28;20033;-72
2022/04/05 08:13:47;;;;;;;28.48;12.57;;;;;;;;;;5001500;28;20118;-71
2022/04/05 08:16:13;;;;;;;28.85;14.38;;;;;;;;;;5007877;28;20061;-71
2022/04/05 08:18:38;;;;;;;29.63;13.52;;;;;;;;;;5007933;28;20129;-72
2022/04/05 08:21:04;;;;;;;29.48;13.05;;;;;;;;;;5008570;28;20065;-71
2022/04/05 08:23:29;;;;;;;27.08;12.85;;;;;;;;;;5014815;28;20026;-72
2022/04/05 08:25:54;;;;;;;32.13;13.90;;;;;;;;;;5011819;28;20033;-72
2022/04/05 08:28:20;;;;;;;29.23;13.52;;;;;;;;;;5006177;28;20037;-72
2022/04/05 08:30:45;;;;;;;23.52;12.27;;;;;;;;;;5008734;28;20038;-72
2022/04/05 08:33:11;;;;;;;28.83;12.93;;;;;;;;;;5006870;28;20506;-71
2022/04/05 08:35:37;;;;;;;30.33;13.38;;;;;;;;;;5008365;28;20061;-72
2022/04/05 08:38:02;;;;;;;27.52;13.05;;;;;;;;;;5005075;28;20022;-72
2022/04/05 08:40:28;;;;;;;30.10;12.60;;;;;;;;;;5008452;28;20498;-71
2022/04/05 08:42:57;;;;;;;25.90;11.90;;;;;;;;;;5007493;28;20042;-71
2022/04/05 08:45:23;;;;;;;26.55;12.23;;;;;;;;;;5008458;28;20042;-71
2022/04/05 08:47:57;;;;;;;22.50;11.32;;;;;;;;;;5006983;28;20053;-71
2022/04/05 08:50:26;;;;;;;27.98;14.25;;;;;;;;;;5007002;28;20084;-72
2022/04/05 08:52:54;;;;;;;22.17;11.90;;;;;;;;;;5005340;28;20151;-72
2022/04/05 08:55:20;;;;;;;28.90;12.65;;;;;;;;;;5008310;28;20073;-71
2022/04/05 08:57:45;;;;;;;24.77;11.98;;;;;;;;;;5007372;28;20533;-72
2022/04/05 09:00:14;;;;;;;23.23;11.98;;;;;;;;;;5006378;28;20041;-71
2022/04/05 09:02:51;;;;;;;23.98;11.70;;;;;;;;;;5007001;28;20507;-72
2022/04/05 09:05:47;;;;;;;24.52;11.57;;;;;;;;;;5006481;28;20038;-72
2022/04/05 09:08:23;;;;;;;22.67;11.48;;;;;;;;;;5002420;28;20045;-72
2022/04/05 09:10:50;;;;;;;23.95;10.93;;;;;;;;;;5007937;28;20038;-72
2022/04/05 09:13:19;;;;;;;24.52;12.30;;;;;;;;;;5007085;28;20111;-71
2022/04/05 09:15:47;;;;;;;20.48;11.23;;;;;;;;;;5007874;28;20038;-72
2022/04/05 09:18:12;;;;;;;21.70;11.30;;;;;;;;;;5006961;28;20045;-71
2022/04/05 09:20:46;;;;;;;22.05;10.88;;;;;;;;;;5005340;28;20030;-72
2022/04/05 09:23:33;;;;;;;20.83;10.20;;;;;;;;;;5006022;28;20033;-72
2022/04/05 09:26:10;;;;;;;20.35;10.32;;;;;;;;;;5006443;28;20076;-71
2022/04/05 09:28:44;;;;;;;17.77;9.57;;;;;;;;;;5004804;28;20041;-71
2022/04/05 09:31:17;;;;;;;17.73;8.95;;;;;;;;;;5007505;28;20042;-71
2022/04/05 09:34:00;;;;;;;17.10;8.70;;;;;;;;;;4999714;28;20054;-71
2022/04/05 09:36:39;;;;;;;15.55;8.45;;;;;;;;;;4994787;28;20045;-71
2022/04/05 09:39:18;;;;;;;19.45;10.30;;;;;;;;;;5006170;28;20042;-71
2022/04/05 09:41:45;;;;;;;18.40;9.13;;;;;;;;;;5007477;28;20080;-71
2022/04/05 09:44:11;;;;;;;17.02;10.35;;;;;;;;;;5007223;28;20121;-71
2022/04/05 09:46:39;;;;;;;17.75;8.82;;;;;;;;;;5006137;28;20133;-71
2022/04/05 09:49:12;;;;;;;19.92;10.48;;;;;;;;;;5006259;28;20041;-72
2022/04/05 09:51:46;;;;;;;19.15;9.60;;;;;;;;;;5007501;28;20396;-72
2022/04/05 09:54:27;;;;;;;17.05;9.75;;;;;;;;;;5005133;28;20046;-73
2022/04/05 09:57:06;;;;;;;20.65;9.68;;;;;;;;;;5007330;28;20479;-71
2022/04/05 09:59:42;;;;;;;18.00;9.35;;;;;;;;;;5004138;28;20037;-72
2022/04/05 10:02:18;;;;;;;22.20;8.95;;;;;;;;;;5007438;28;20050;-71
2022/04/05 10:05:09;;;;;;;16.75;9.05;;;;;;;;;;5009541;28;20052;-72
2022/04/05 10:07:35;;;;;;;19.27;10.15;;;;;;;;;;5008024;28;20061;-71
2022/04/05 10:10:06;;;;;;;17.08;8.70;;;;;;;;;;5005496;28;20038;-72
2022/04/05 10:12:31;;;;;;;18.13;9.40;;;;;;;;;;5007051;28;20129;-72
2022/04/05 10:14:59;;;;;;;19.27;9.60;;;;;;;;;;5004539;28;20121;-72
2022/04/05 10:17:26;;;;;;;17.27;9.23;;;;;;;;;;5009543;28;20060;-72
2022/04/05 10:19:53;;;;;;;18.27;8.82;;;;;;;;;;5008671;28;20048;-72
2022/04/05 10:22:22;;;;;;;19.08;8.32;;;;;;;;;;4996773;28;20637;-72
2022/04/05 10:24:52;;;;;;;19.20;10.02;;;;;;;;;;5015354;28;20049;-71
2022/04/05 10:27:18;;;;;;;17.42;9.55;;;;;;;;;;5010426;28;20061;-72
2022/04/05 10:29:45;;;;;;;16.63;9.25;;;;;;;;;;5009219;28;20606;-72
2022/04/05 10:32:36;;;;;;;21.38;10.35;;;;;;;;;;5010119;28;20041;-72
2022/04/05 10:35:08;;;;;;;15.30;7.78;;;;;;;;;;5000252;28;20740;-72
2022/04/05 10:37:38;;;;;;;17.40;8.95;;;;;;;;;;5008110;28;20459;-72
2022/04/05 10:40:13;;;;;;;19.02;9.80;;;;;;;;;;5010475;28;20041;-72
2022/04/05 10:42:39;;;;;;;18.85;9.45;;;;;;;;;;5011011;28;20053;-71
2022/04/05 10:45:15;;;;;;;21.40;8.30;;;;;;;;;;5016818;28;20041;-71
2022/04/05 10:48:11;;;;;;;16.60;8.63;;;;;;;;;;5002885;28;20050;-71
2022/04/05 10:50:36;;;;;;;15.13;8.57;;;;;;;;;;5008422;28;20124;-72
2022/04/05 10:53:17;;;;;;;17.15;8.52;;;;;;;;;;5010895;28;20153;-71
2022/04/05 10:56:05;;;;;;;19.38;8.68;;;;;;;;;;5007834;28;20179;-72
2022/04/05 10:58:32;;;;;;;15.27;9.35;;;;;;;;;;5010558;28;20046;-72
2022/04/05 11:01:19;;;;;;;14.75;8.93;;;;;;;;;;5009223;28;20046;-72
2022/04/05 11:04:12;;;;;;;11.88;7.05;;;;;;;;;;4998182;28;20037;-72
2022/04/05 11:06:59;;;;;;;9.65;6.43;;;;;;;;;;5009540;28;20045;-72
2022/04/05 11:09:42;;;;;;;12.07;7.63;;;;;;;;;;5009241;28;20041;-72
2022/04/05 11:12:15;;;;;;;12.80;8.02;;;;;;;;;;5008730;28;20057;-72
2022/04/05 11:14:44;;;;;;;11.57;7.32;;;;;;;;;;5003464;28;20088;-71
2022/04/05 11:17:12;;;;;;;11.07;7.05;;;;;;;;;;5010170;28;20546;-71
2022/04/05 11:19:40;;;;;;;13.07;7.53;;;;;;;;;;5009019;28;20435;-71
2022/04/05 11:22:25;;;;;;;11.57;6.93;;;;;;;;;;5009324;28;20161;-71
2022/04/05 11:24:59;;;;;;;12.63;7.25;;;;;;;;;;5008804;28;20419;-71
2022/04/05 11:27:28;;;;;;;12.02;7.70;;;;;;;;;;5008017;28;20034;-72
2022/04/05 11:30:25;;;;;;;14.45;7.72;;;;;;;;;;5008138;28;20439;-72
2022/04/05 11:33:06;;;;;;;15.27;8.02;;;;;;;;;;5009636;28;20470;-72
2022/04/05 11:35:34;;;;;;;14.23;8.18;;;;;;;;;;5007956;28;20097;-72
2022/04/05 11:37:59;;;;;;;13.85;7.00;;;;;;;;;;5010417;28;20030;-72
2022/04/05 11:40:24;;;;;;;12.20;6.32;;;;;;;;;;5008654;28;20046;-72
2022/04/05 11:42:51;;;;;;;12.82;6.82;;;;;;;;;;5012271;28;20095;-71
2022/04/05 11:45:17;;;;;;;13.02;5.90;;;;;;;;;;5014181;28;20811;-71
2022/04/05 11:47:51;;;;;;;12.80;7.43;;;;;;;;;;5007898;28;20038;-73
2022/04/05 11:50:19;;;;;;;11.77;6.53;;;;;;;;;;5009066;28;20503;-72
2022/04/05 11:52:45;;;;;;;11.68;6.85;;;;;;;;;;5004298;28;20058;-72
2022/04/05 11:58:04;;;;;;;10.50;6.35;;;;;;;;;;5008996;28;20049;-73
2022/04/05 12:00:30;;;;;;;11.20;6.97;;;;;;;;;;5006922;28;20431;-72
2022/04/05 12:03:10;;;;;;;7.03;4.45;;;;;;;;;;5008933;28;20111;-72
2022/04/05 12:05:43;;;;;;;9.07;5.63;;;;;;;;;;5009402;28;20767;-73
2022/04/05 12:08:09;;;;;;;12.10;5.93;;;;;;;;;;5007361;28;20030;-73
2022/04/05 12:10:35;;;;;;;10.82;6.28;;;;;;;;;;5008766;28;20033;-72
2022/04/05 12:13:00;;;;;;;10.23;6.13;;;;;;;;;;5008559;28;20091;-72
2022/04/05 12:15:26;;;;;;;11.43;6.25;;;;;;;;;;5008937;28;20042;-73
2022/04/05 12:17:51;;;;;;;9.13;4.90;;;;;;;;;;5008874;28;20104;-72
2022/04/05 12:20:19;;;;;;;9.80;5.65;;;;;;;;;;5005362;28;20080;-73
2022/04/05 12:22:44;;;;;;;11.15;5.50;;;;;;;;;;5009136;28;20054;-72
2022/04/05 12:25:10;;;;;;;10.13;6.10;;;;;;;;;;5008721;28;20049;-73
2022/04/05 12:27:35;;;;;;;11.23;6.18;;;;;;;;;;4999196;28;20129;-72
2022/04/05 12:30:03;;;;;;;12.95;6.97;;;;;;;;;;5006871;28;20481;-72
2022/04/05 12:32:33;;;;;;;10.73;6.65;;;;;;;;;;5007513;28;20129;-72
2022/04/05 12:34:59;;;;;;;13.50;7.15;;;;;;;;;;5006918;28;20034;-73
2022/04/05 12:37:24;;;;;;;10.70;6.22;;;;;;;;;;5008626;28;20148;-72
2022/04/05 12:39:50;;;;;;;12.48;6.82;;;;;;;;;;5006411;28;20095;-72
2022/04/05 12:42:17;;;;;;;11.40;7.22;;;;;;;;;;5008715;28;20042;-72
2022/04/05 12:44:45;;;;;;;9.27;5.82;;;;;;;;;;5004511;28;20039;-70
2022/04/05 12:47:21;;;;;;;13.70;5.93;;;;;;;;;;5007223;28;20065;-70
2022/04/05 12:49:49;;;;;;;14.10;7.05;;;;;;;;;;5008237;28;20065;-70
2022/04/05 12:52:17;;;;;;;11.70;6.60;;;;;;;;;;5007498;28;20038;-70
2022/04/05 12:54:50;;;;;;;12.95;6.20;;;;;;;;;;5004776;28;20130;-70
2022/04/05 12:57:21;;;;;;;;;;;;;;;;;;5006884;28;20049;-70
2022/04/05 12:59:49;;;;;;;10.40;6.07;;;;;;;;;;5007927;28;20359;-70
2022/04/05 13:02:25;;;;;;;8.82;4.65;;;;;;;;;;5006479;28;20068;-70
2022/04/05 13:06:19;;;;;;;9.25;5.15;;;;;;;;;;5008942;28;20042;-71
2022/04/05 13:07:53;;;;;;;8.13;5.03;;;;;;;;;;5007355;28;20048;-70
2022/04/05 13:10:19;;;;;;;11.45;5.28;;;;;;;;;;5001359;28;20487;-70
2022/04/05 13:12:44;;;;;;;9.60;5.32;;;;;;;;;;5007575;28;20073;-70
2022/04/05 13:15:11;;;;;;;11.82;6.80;;;;;;;;;;5007813;28;20057;-70
2022/04/05 13:17:37;;;;;;;10.20;6.88;;;;;;;;;;5007601;28;20089;-70
2022/04/05 13:20:07;;;;;;;13.50;6.72;;;;;;;;;;5008214;28;20042;-70
2022/04/05 13:22:32;;;;;;;12.02;6.78;;;;;;;;;;5004754;28;20041;-70
2022/04/05 13:24:58;;;;;;;12.40;7.05;;;;;;;;;;5019454;28;20490;-70
2022/04/05 13:27:23;;;;;;;13.75;6.97;;;;;;;;;;4998724;28;20088;-70
2022/04/05 13:29:49;;;;;;;13.68;6.95;;;;;;;;;;5008021;28;20052;-70
2022/04/05 13:32:17;;;;;;;10.43;6.13;;;;;;;;;;5007895;28;20029;-73
2022/04/05 13:34:44;;;;;;;10.98;6.90;;;;;;;;;;5002239;28;20140;-73
2022/04/05 13:37:13;;;;;;;10.00;5.80;;;;;;;;;;5006422;28;20117;-73
2022/04/05 13:39:39;;;;;;;9.13;6.07;;;;;;;;;;5007803;28;20076;-73
2022/04/05 13:42:13;;;;;;;12.32;6.30;;;;;;;;;;5006852;28;20415;-72
2022/04/05 13:44:40;;;;;;;13.40;6.55;;;;;;;;;;5007210;28;20046;-70
2022/04/05 13:47:05;;;;;;;14.80;6.60;;;;;;;;;;5006082;28;20407;-71
2022/04/05 13:49:31;;;;;;;11.10;6.15;;;;;;;;;;5007011;28;20804;-70
2022/04/05 13:51:57;;;;;;;12.63;5.75;;;;;;;;;;5004741;28;20123;-70
2022/04/05 13:54:24;;;;;;;11.45;5.50;;;;;;;;;;5006943;28;20183;-70
2022/04/05 13:56:50;;;;;;;13.20;5.70;;;;;;;;;;5006415;28;20034;-70
2022/04/05 13:59:15;;;;;;;11.85;5.70;;;;;;;;;;5006181;28;20105;-70
2022/04/05 14:01:41;;;;;;;7.53;4.93;;;;;;;;;;5004597;28;20089;-70
2022/04/05 14:04:06;;;;;;;9.00;5.20;;;;;;;;;;5009016;28;20140;-71
2022/04/05 14:06:32;;;;;;;11.15;5.22;;;;;;;;;;5007114;28;20112;-70
2022/04/05 14:08:58;;;;;;;9.20;4.90;;;;;;;;;;5006489;28;20037;-70
2022/04/05 14:11:24;;;;;;;10.93;5.28;;;;;;;;;;5005490;28;20062;-70
2022/04/05 14:13:50;;;;;;;8.95;4.95;;;;;;;;;;5005802;28;20080;-70
2022/04/05 14:16:16;;;;;;;8.93;4.78;;;;;;;;;;4997855;28;20045;-70
2022/04/05 14:18:42;;;;;;;7.97;4.70;;;;;;;;;;5006693;28;20042;-70
2022/04/05 14:21:08;;;;;;;8.38;5.18;;;;;;;;;;5006138;28;20037;-73
2022/04/05 14:23:35;;;;;;;12.50;5.85;;;;;;;;;;5004897;28;20038;-70
2022/04/05 14:26:03;;;;;;;11.13;5.30;;;;;;;;;;5007723;28;20025;-70
2022/04/05 14:28:28;;;;;;;9.98;5.07;;;;;;;;;;5001801;28;20088;-71